Time;durP1;ratioP1;P1;durP2;ratioP2;P2;SDS_P1;SDS_P2;PMS_P1;PMS_P2;Temp;Humidity;BMP_temperature;BMP_pressure;BME280_temperature;BME280_humidity;BME280_pressure;Samples;Min_cycle;Max_cycle;Signal;HPM_P1;HPM_P2
2022/03/11 00:01:35;;;;;;;;;9.25;8.00;;;;;;;;5019432;28;51158;-60
2022/03/11 00:04:19;;;;;;;;;10.75;10.25;;;;;;;;5014945;28;51004;-60
2022/03/11 00:07:04;;;;;;;;;17.25;11.00;;;;;;;;5019429;28;51253;-60
2022/03/11 00:09:50;;;;;;;;;11.00;9.25;;;;;;;;5018924;28;51757;-59
2022/03/11 00:12:36;;;;;;;;;11.00;8.75;;;;;;;;5016241;28;51154;-61
2022/03/11 00:15:20;;;;;;;;;13.25;8.75;;;;;;;;5020097;28;51008;-60
2022/03/11 00:18:05;;;;;;;;;10.75;9.50;;;;;;;;5018620;28;51494;-60
2022/03/11 00:20:49;;;;;;;;;14.50;11.50;;;;;;;;5019009;28;51130;-56
2022/03/11 00:23:33;;;;;;;;;11.25;8.25;;;;;;;;5019516;28;51023;-58
2022/03/11 00:26:18;;;;;;;;;15.75;11.00;;;;;;;;5019626;28;50949;-58
2022/03/11 00:29:02;;;;;;;;;8.75;8.00;;;;;;;;5018991;28;51016;-59
2022/03/11 00:31:47;;;;;;;;;12.50;9.50;;;;;;;;5018835;28;51064;-61
2022/03/11 00:34:31;;;;;;;;;13.25;12.00;;;;;;;;5019430;28;51364;-60
2022/03/11 00:37:15;;;;;;;;;11.50;10.50;;;;;;;;5018632;28;51090;-60
2022/03/11 00:40:00;;;;;;;;;8.25;6.00;;;;;;;;5019160;28;51113;-59
2022/03/11 00:42:44;;;;;;;;;15.00;11.75;;;;;;;;5018797;28;51136;-60
2022/03/11 00:45:29;;;;;;;;;14.75;9.00;;;;;;;;5019514;28;51130;-60
2022/03/11 00:48:13;;;;;;;;;19.50;12.50;;;;;;;;5017924;28;51177;-58
2022/03/11 00:50:58;;;;;;;;;19.00;14.25;;;;;;;;5018927;28;51356;-58
2022/03/11 00:53:42;;;;;;;;;17.25;12.00;;;;;;;;5017412;28;51448;-59
2022/03/11 00:56:28;;;;;;;;;17.25;13.00;;;;;;;;5018750;28;51082;-60
2022/03/11 00:59:12;;;;;;;;;18.75;13.00;;;;;;;;5019422;28;51451;-58
2022/03/11 01:01:57;;;;;;;;;17.50;13.00;;;;;;;;5018394;28;51174;-60
2022/03/11 01:04:41;;;;;;;;;13.50;11.75;;;;;;;;5017894;28;51127;-58
2022/03/11 01:07:25;;;;;;;;;17.50;15.25;;;;;;;;5018394;28;51125;-59
2022/03/11 01:10:10;;;;;;;;;13.25;9.75;;;;;;;;5019044;28;51424;-60
2022/03/11 01:12:54;;;;;;;;;15.75;9.50;;;;;;;;5018088;28;51141;-60
2022/03/11 01:15:39;;;;;;;;;15.50;13.75;;;;;;;;5019394;28;51075;-59
2022/03/11 01:18:23;;;;;;;;;16.25;14.75;;;;;;;;5018708;28;51430;-59
2022/03/11 01:21:08;;;;;;;;;19.50;15.25;;;;;;;;5018968;28;51399;-59
2022/03/11 01:23:53;;;;;;;;;17.50;13.00;;;;;;;;5018607;28;51037;-58
2022/03/11 01:26:37;;;;;;;;;19.25;13.75;;;;;;;;5018357;28;51093;-59
2022/03/11 01:29:23;;;;;;;;;15.00;12.75;;;;;;;;5018991;28;51062;-58
2022/03/11 01:32:07;;;;;;;;;19.50;15.50;;;;;;;;5018295;28;51553;-58
2022/03/11 01:34:52;;;;;;;;;16.50;14.25;;;;;;;;5017163;28;51137;-60
2022/03/11 01:37:36;;;;;;;;;17.75;13.25;;;;;;;;5018707;28;51145;-62
2022/03/11 01:40:20;;;;;;;;;16.00;13.75;;;;;;;;5020440;28;51113;-60
2022/03/11 01:43:11;;;;;;;;;20.25;15.75;;;;;;;;5022154;28;51003;-59
2022/03/11 01:45:56;;;;;;;;;17.00;14.75;;;;;;;;5022034;28;51090;-59
2022/03/11 01:48:41;;;;;;;;;15.25;11.75;;;;;;;;5020422;28;51087;-59
2022/03/11 01:51:26;;;;;;;;;14.25;10.75;;;;;;;;5017338;28;51018;-60
2022/03/11 01:54:10;;;;;;;;;15.75;13.75;;;;;;;;5022162;28;51459;-58
2022/03/11 01:56:55;;;;;;;;;16.25;12.75;;;;;;;;5021046;28;51128;-61
2022/03/11 01:59:39;;;;;;;;;16.00;13.00;;;;;;;;5021916;28;51395;-58
2022/03/11 02:02:24;;;;;;;;;16.00;13.25;;;;;;;;5016607;28;51179;-60
2022/03/11 02:05:08;;;;;;;;;14.25;12.25;;;;;;;;5022265;28;53140;-61
2022/03/11 02:07:53;;;;;;;;;15.50;13.50;;;;;;;;5021968;28;51106;-58
2022/03/11 02:10:37;;;;;;;;;14.25;11.00;;;;;;;;5021996;28;51035;-59
2022/03/11 02:13:22;;;;;;;;;19.50;13.25;;;;;;;;5021619;28;51113;-62
2022/03/11 02:16:06;;;;;;;;;13.00;12.25;;;;;;;;5020125;28;51174;-60
2022/03/11 02:18:50;;;;;;;;;21.50;12.50;;;;;;;;5021979;28;51243;-61
2022/03/11 02:21:41;;;;;;;;;2.00;0.00;;;;;;;;5021367;28;51209;-59
2022/03/11 02:24:27;;;;;;;;;14.00;12.25;;;;;;;;5021717;28;51177;-60
2022/03/11 02:27:12;;;;;;;;;19.50;13.25;;;;;;;;5020524;28;51113;-61
2022/03/11 02:29:56;;;;;;;;;15.00;13.00;;;;;;;;5022092;28;51018;-62
2022/03/11 02:32:41;;;;;;;;;20.50;14.00;;;;;;;;5019416;28;51457;-61
2022/03/11 02:35:25;;;;;;;;;19.25;12.75;;;;;;;;5020848;28;51090;-62
2022/03/11 02:38:09;;;;;;;;;19.25;14.00;;;;;;;;5018757;28;51428;-58
2022/03/11 02:40:54;;;;;;;;;20.00;15.00;;;;;;;;5021283;28;51150;-62
2022/03/11 02:43:41;;;;;;;;;15.50;12.25;;;;;;;;5021176;28;51055;-61
2022/03/11 02:46:26;;;;;;;;;17.50;14.25;;;;;;;;5021137;28;51727;-60
2022/03/11 02:49:10;;;;;;;;;18.50;13.50;;;;;;;;5021407;28;51526;-60
2022/03/11 02:51:56;;;;;;;;;16.00;12.50;;;;;;;;5020430;28;51154;-58
2022/03/11 02:54:40;;;;;;;;;16.00;13.00;;;;;;;;5020112;28;51150;-60
2022/03/11 02:57:25;;;;;;;;;20.50;14.75;;;;;;;;5020351;28;51410;-60
2022/03/11 03:00:10;;;;;;;;;16.75;13.50;;;;;;;;5021051;28;51110;-63
2022/03/11 03:02:54;;;;;;;;;15.00;13.50;;;;;;;;5020067;28;51473;-59
2022/03/11 03:05:38;;;;;;;;;17.50;14.25;;;;;;;;5020165;28;51182;-60
2022/03/11 03:08:23;;;;;;;;;15.50;13.25;;;;;;;;5018396;28;51186;-63
2022/03/11 03:11:07;;;;;;;;;15.00;13.25;;;;;;;;5020615;28;51163;-59
2022/03/11 03:13:51;;;;;;;;;22.50;15.75;;;;;;;;5020477;28;51034;-60
2022/03/11 03:16:36;;;;;;;;;21.50;13.50;;;;;;;;5020188;28;51070;-61
2022/03/11 03:19:20;;;;;;;;;21.50;14.00;;;;;;;;5020766;28;51178;-58
2022/03/11 03:22:05;;;;;;;;;22.25;15.25;;;;;;;;5020081;28;51044;-60
2022/03/11 03:24:49;;;;;;;;;18.25;15.00;;;;;;;;5020170;28;51140;-61
2022/03/11 03:27:33;;;;;;;;;14.50;13.50;;;;;;;;5019860;28;51099;-57
2022/03/11 03:30:19;;;;;;;;;20.00;15.75;;;;;;;;5019999;28;51202;-62
2022/03/11 03:33:02;;;;;;;;;22.00;18.50;;;;;;;;5019412;28;51453;-57
2022/03/11 03:35:47;;;;;;;;;15.75;15.00;;;;;;;;5019917;28;51118;-59
2022/03/11 03:38:31;;;;;;;;;20.50;15.50;;;;;;;;5015563;28;51012;-59
2022/03/11 03:41:16;;;;;;;;;23.75;18.75;;;;;;;;5013919;28;51170;-59
2022/03/11 03:44:00;;;;;;;;;18.25;18.25;;;;;;;;5019576;28;51273;-59
2022/03/11 03:46:44;;;;;;;;;24.50;20.00;;;;;;;;5019779;28;51470;-61
2022/03/11 03:49:30;;;;;;;;;21.50;19.25;;;;;;;;5019453;28;51181;-60
2022/03/11 03:52:14;;;;;;;;;26.50;21.25;;;;;;;;5019077;28;51034;-62
2022/03/11 03:54:59;;;;;;;;;28.50;18.00;;;;;;;;5018925;28;51154;-61
2022/03/11 03:57:43;;;;;;;;;25.50;20.50;;;;;;;;5019214;28;51174;-58
2022/03/11 04:00:27;;;;;;;;;24.25;18.00;;;;;;;;5013531;28;51082;-59
2022/03/11 04:03:12;;;;;;;;;27.00;19.50;;;;;;;;5018367;28;51111;-61
2022/03/11 04:05:57;;;;;;;;;19.50;13.25;;;;;;;;5019054;28;51205;-60
2022/03/11 04:08:41;;;;;;;;;24.00;19.25;;;;;;;;5019765;28;51030;-60
2022/03/11 04:11:26;;;;;;;;;21.75;15.50;;;;;;;;5018963;28;51201;-60
2022/03/11 04:14:11;;;;;;;;;18.50;15.00;;;;;;;;5018166;28;51114;-59
2022/03/11 04:16:55;;;;;;;;;21.25;15.50;;;;;;;;5019553;28;51055;-59
2022/03/11 04:19:39;;;;;;;;;25.25;16.75;;;;;;;;5019585;28;51142;-59
2022/03/11 04:22:24;;;;;;;;;17.25;13.75;;;;;;;;5018795;28;51193;-59
2022/03/11 04:25:12;;;;;;;;;28.25;19.75;;;;;;;;5019055;28;51121;-59
2022/03/11 04:27:56;;;;;;;;;19.00;15.00;;;;;;;;5019077;28;51117;-59
2022/03/11 04:30:40;;;;;;;;;17.75;16.50;;;;;;;;5012581;28;51074;-60
2022/03/11 04:33:29;;;;;;;;;18.25;15.75;;;;;;;;5019484;28;51008;-61
2022/03/11 04:36:13;;;;;;;;;22.00;18.25;;;;;;;;5018600;28;51245;-60
2022/03/11 04:38:57;;;;;;;;;24.00;15.25;;;;;;;;5018858;28;51158;-60
2022/03/11 04:41:43;;;;;;;;;25.00;15.75;;;;;;;;5017904;28;51588;-60
2022/03/11 04:44:28;;;;;;;;;21.75;17.25;;;;;;;;5019021;28;51249;-59
2022/03/11 04:47:12;;;;;;;;;24.75;24.75;;;;;;;;5018822;28;51437;-61
2022/03/11 04:49:57;;;;;;;;;28.75;25.75;;;;;;;;5019296;28;51056;-60
2022/03/11 04:52:41;;;;;;;;;37.50;32.00;;;;;;;;5018373;28;51149;-60
2022/03/11 04:55:25;;;;;;;;;35.25;31.50;;;;;;;;5018822;28;51103;-60
2022/03/11 04:58:10;;;;;;;;;37.25;29.75;;;;;;;;5019765;28;51175;-57
2022/03/11 05:00:54;;;;;;;;;29.00;27.50;;;;;;;;5018566;28;51109;-59
2022/03/11 05:03:39;;;;;;;;;35.00;28.75;;;;;;;;5018481;28;51143;-58
2022/03/11 05:06:23;;;;;;;;;34.25;30.00;;;;;;;;5018444;28;51587;-59
2022/03/11 05:09:07;;;;;;;;;40.00;32.25;;;;;;;;5018361;28;51253;-61
2022/03/11 05:11:52;;;;;;;;;42.50;33.25;;;;;;;;5019004;28;51514;-60
2022/03/11 05:14:36;;;;;;;;;42.75;34.75;;;;;;;;5019523;28;51283;-59
2022/03/11 05:17:20;;;;;;;;;44.75;35.00;;;;;;;;5021127;28;51044;-59
2022/03/11 05:20:08;;;;;;;;;47.75;37.25;;;;;;;;5009375;28;51205;-59
2022/03/11 05:22:52;;;;;;;;;43.00;36.00;;;;;;;;5015153;28;53606;-59
2022/03/11 05:25:37;;;;;;;;;45.75;36.25;;;;;;;;5022805;28;51503;-59
2022/03/11 05:28:21;;;;;;;;;51.00;37.75;;;;;;;;5022821;28;51144;-59
2022/03/11 05:31:06;;;;;;;;;49.00;38.25;;;;;;;;5022662;28;51086;-60
2022/03/11 05:33:50;;;;;;;;;48.00;38.75;;;;;;;;5022912;28;51426;-47
2022/03/11 05:36:35;;;;;;;;;47.00;38.75;;;;;;;;5020383;28;51280;-48
2022/03/11 05:39:19;;;;;;;;;55.00;40.75;;;;;;;;5021544;28;51145;-48
2022/03/11 05:42:04;;;;;;;;;58.25;45.00;;;;;;;;5022182;28;51620;-47
2022/03/11 05:44:49;;;;;;;;;57.25;44.00;;;;;;;;5021914;28;51462;-47
2022/03/11 05:47:33;;;;;;;;;56.50;43.50;;;;;;;;5022030;28;51157;-50
2022/03/11 05:50:18;;;;;;;;;54.75;39.75;;;;;;;;5013832;28;52132;-46
2022/03/11 05:53:02;;;;;;;;;49.75;41.00;;;;;;;;5022001;28;51933;-49
2022/03/11 05:55:46;;;;;;;;;57.75;44.25;;;;;;;;5021954;28;51544;-48
2022/03/11 05:58:31;;;;;;;;;63.00;45.00;;;;;;;;5022839;28;51327;-46
2022/03/11 06:01:15;;;;;;;;;55.75;45.25;;;;;;;;5021347;28;51453;-49
2022/03/11 06:04:01;;;;;;;;;54.75;42.50;;;;;;;;5021682;28;51124;-46
2022/03/11 06:06:45;;;;;;;;;55.75;43.50;;;;;;;;5021818;28;51098;-46
2022/03/11 06:09:30;;;;;;;;;58.50;44.75;;;;;;;;5021218;28;51122;-46
2022/03/11 06:12:14;;;;;;;;;72.50;51.00;;;;;;;;5021731;28;51102;-47
2022/03/11 06:14:59;;;;;;;;;59.75;46.00;;;;;;;;5011970;28;51136;-49
2022/03/11 06:17:43;;;;;;;;;60.00;46.00;;;;;;;;5010782;28;51076;-47
2022/03/11 06:20:29;;;;;;;;;63.50;47.00;;;;;;;;5008283;28;51739;-48
2022/03/11 06:23:14;;;;;;;;;57.00;45.00;;;;;;;;5015299;28;51023;-49
2022/03/11 06:25:58;;;;;;;;;54.00;41.00;;;;;;;;5006955;28;51568;-51
2022/03/11 06:28:42;;;;;;;;;55.25;44.25;;;;;;;;5006505;28;50990;-48
2022/03/11 06:31:27;;;;;;;;;60.00;43.75;;;;;;;;5015583;28;51158;-46
2022/03/11 06:34:11;;;;;;;;;61.50;48.00;;;;;;;;5019923;28;51101;-48
2022/03/11 06:36:56;;;;;;;;;66.75;50.50;;;;;;;;5020141;28;51122;-48
2022/03/11 06:39:41;;;;;;;;;71.00;55.75;;;;;;;;5020252;28;51537;-47
2022/03/11 06:42:25;;;;;;;;;67.75;51.75;;;;;;;;5020322;28;51125;-47
2022/03/11 06:45:10;;;;;;;;;64.00;49.50;;;;;;;;5020853;28;51153;-47
2022/03/11 06:47:55;;;;;;;;;66.75;48.50;;;;;;;;5020701;28;51129;-45
2022/03/11 06:50:39;;;;;;;;;66.25;49.00;;;;;;;;5019673;28;51095;-46
2022/03/11 06:53:27;;;;;;;;;78.00;60.00;;;;;;;;5021083;28;51164;-46
2022/03/11 06:56:11;;;;;;;;;71.50;51.00;;;;;;;;5021198;28;51523;-45
2022/03/11 06:58:56;;;;;;;;;77.00;66.25;;;;;;;;5019968;28;51201;-49
2022/03/11 07:01:44;;;;;;;;;89.25;77.00;;;;;;;;5020331;28;51161;-47
2022/03/11 07:04:28;;;;;;;;;83.25;74.75;;;;;;;;5020404;28;51040;-48
2022/03/11 07:07:12;;;;;;;;;86.50;74.00;;;;;;;;5020639;28;51182;-47
2022/03/11 07:09:57;;;;;;;;;97.75;83.00;;;;;;;;5020306;28;51058;-45
2022/03/11 07:12:41;;;;;;;;;88.25;80.25;;;;;;;;5017916;28;51138;-47
2022/03/11 07:15:25;;;;;;;;;105.50;86.00;;;;;;;;5020341;28;51408;-46
2022/03/11 07:18:10;;;;;;;;;93.00;75.25;;;;;;;;5019272;28;51141;-46
2022/03/11 07:20:54;;;;;;;;;75.25;62.50;;;;;;;;5019798;28;51199;-48
2022/03/11 07:23:39;;;;;;;;;73.00;55.50;;;;;;;;5017247;28;51067;-46
2022/03/11 07:26:23;;;;;;;;;72.00;59.75;;;;;;;;5020108;28;51169;-48
2022/03/11 07:29:08;;;;;;;;;73.75;56.00;;;;;;;;5012347;28;51049;-48
2022/03/11 07:31:52;;;;;;;;;65.75;50.25;;;;;;;;5013146;28;51147;-47
2022/03/11 07:34:36;;;;;;;;;73.25;58.00;;;;;;;;5018583;28;51144;-46
2022/03/11 07:37:21;;;;;;;;;68.25;54.50;;;;;;;;5016964;28;51150;-47
2022/03/11 07:40:05;;;;;;;;;71.25;55.00;;;;;;;;5026918;28;51565;-47
2022/03/11 07:42:49;;;;;;;;;51.50;39.00;;;;;;;;5019767;28;51068;-47
2022/03/11 07:45:34;;;;;;;;;53.75;40.00;;;;;;;;5016830;28;51130;-46
2022/03/11 07:48:19;;;;;;;;;56.25;42.50;;;;;;;;5019395;28;51268;-46
2022/03/11 07:51:03;;;;;;;;;48.75;36.25;;;;;;;;5020228;28;51128;-47
2022/03/11 07:53:47;;;;;;;;;39.25;27.50;;;;;;;;5019150;28;51427;-46
2022/03/11 07:56:32;;;;;;;;;42.00;31.50;;;;;;;;5019735;28;51081;-48
2022/03/11 07:59:16;;;;;;;;;34.75;28.75;;;;;;;;5019358;28;51217;-47
2022/03/11 08:02:00;;;;;;;;;37.00;28.75;;;;;;;;5019179;28;51039;-46
2022/03/11 08:04:45;;;;;;;;;34.00;28.25;;;;;;;;5019502;28;51421;-45
2022/03/11 08:07:29;;;;;;;;;39.50;28.75;;;;;;;;5012680;28;51085;-47
2022/03/11 08:10:15;;;;;;;;;37.75;31.00;;;;;;;;5011187;28;51107;-48
2022/03/11 08:13:00;;;;;;;;;38.25;30.25;;;;;;;;5018603;28;51226;-48
2022/03/11 08:15:44;;;;;;;;;34.00;28.25;;;;;;;;5019460;28;51063;-48
2022/03/11 08:18:29;;;;;;;;;32.25;27.75;;;;;;;;5012229;28;51090;-47
2022/03/11 08:21:16;;;;;;;;;24.25;16.75;;;;;;;;5018461;28;51166;-49
2022/03/11 08:24:00;;;;;;;;;38.25;29.25;;;;;;;;5019337;28;51042;-49
2022/03/11 08:26:44;;;;;;;;;35.25;26.00;;;;;;;;5016285;28;51237;-48
2022/03/11 08:29:33;;;;;;;;;34.50;26.75;;;;;;;;5018275;28;51421;-47
2022/03/11 08:32:17;;;;;;;;;32.50;22.50;;;;;;;;5018867;28;51188;-47
2022/03/11 08:35:02;;;;;;;;;28.00;20.25;;;;;;;;5019002;28;51070;-47
2022/03/11 08:37:47;;;;;;;;;25.75;20.50;;;;;;;;5015525;28;51141;-48
2022/03/11 08:40:31;;;;;;;;;25.75;19.50;;;;;;;;5017251;28;51179;-49
2022/03/11 08:43:15;;;;;;;;;27.75;23.00;;;;;;;;5018682;28;51577;-46
2022/03/11 08:46:01;;;;;;;;;26.00;22.75;;;;;;;;5019050;28;51137;-47
2022/03/11 08:48:45;;;;;;;;;26.50;22.75;;;;;;;;5018265;28;51136;-48
2022/03/11 08:51:29;;;;;;;;;27.00;20.00;;;;;;;;5015332;28;51083;-47
2022/03/11 08:54:14;;;;;;;;;22.75;15.00;;;;;;;;5018330;28;51154;-47
2022/03/11 08:56:59;;;;;;;;;17.25;12.75;;;;;;;;5017897;28;51204;-46
2022/03/11 08:59:43;;;;;;;;;20.00;16.00;;;;;;;;5018416;28;51465;-47
2022/03/11 09:02:27;;;;;;;;;16.50;13.25;;;;;;;;5018338;28;51100;-48
2022/03/11 09:05:13;;;;;;;;;20.00;15.25;;;;;;;;5018224;28;51168;-50
2022/03/11 09:08:01;;;;;;;;;18.75;13.00;;;;;;;;5017790;28;51364;-49
2022/03/11 09:10:45;;;;;;;;;18.75;15.00;;;;;;;;5018770;28;51503;-47
2022/03/11 09:13:29;;;;;;;;;14.50;12.00;;;;;;;;5015506;28;51253;-48
2022/03/11 09:16:14;;;;;;;;;18.00;14.00;;;;;;;;5016121;28;51252;-44
2022/03/11 09:18:59;;;;;;;;;14.50;12.25;;;;;;;;5016259;28;51219;-48
2022/03/11 09:21:43;;;;;;;;;18.50;12.75;;;;;;;;5013499;28;51142;-45
2022/03/11 09:24:27;;;;;;;;;24.75;15.50;;;;;;;;5010571;28;51576;-47
2022/03/11 09:27:12;;;;;;;;;20.25;17.00;;;;;;;;5013136;28;51210;-45
2022/03/11 09:29:56;;;;;;;;;14.50;12.25;;;;;;;;5012448;28;51189;-45
2022/03/11 09:32:41;;;;;;;;;8.25;6.75;;;;;;;;5012152;28;51190;-45
2022/03/11 09:35:25;;;;;;;;;11.00;9.00;;;;;;;;5015997;28;51436;-44
2022/03/11 09:38:09;;;;;;;;;24.25;17.50;;;;;;;;5013777;28;51265;-46
2022/03/11 09:40:56;;;;;;;;;14.50;12.00;;;;;;;;5018111;28;51149;-47
2022/03/11 09:43:40;;;;;;;;;13.75;8.75;;;;;;;;5016986;28;51268;-46
2022/03/11 09:46:25;;;;;;;;;18.00;13.50;;;;;;;;5016861;28;51034;-45
2022/03/11 09:49:13;;;;;;;;;24.50;14.75;;;;;;;;5015679;28;51121;-46
2022/03/11 09:51:58;;;;;;;;;15.50;12.00;;;;;;;;5017036;28;51178;-46
2022/03/11 09:54:45;;;;;;;;;21.50;15.00;;;;;;;;5016174;28;51141;-47
2022/03/11 09:57:28;;;;;;;;;23.25;16.25;;;;;;;;5017163;28;51138;-47
2022/03/11 10:00:13;;;;;;;;;20.50;14.50;;;;;;;;5017216;28;51634;-46
2022/03/11 10:03:03;;;;;;;;;30.50;18.00;;;;;;;;5020688;28;51526;-47
2022/03/11 10:05:52;;;;;;;;;20.50;15.00;;;;;;;;5021049;28;51156;-46
2022/03/11 10:08:44;;;;;;;;;24.75;16.25;;;;;;;;5019734;28;51533;-46
2022/03/11 10:11:28;;;;;;;;;22.50;13.00;;;;;;;;5020795;28;51171;-46
2022/03/11 10:14:12;;;;;;;;;23.25;16.50;;;;;;;;5017841;28;51410;-46
2022/03/11 10:16:58;;;;;;;;;22.00;17.25;;;;;;;;5012685;28;51165;-45
2022/03/11 10:19:53;;;;;;;;;19.25;15.25;;;;;;;;5019787;28;51035;-48
2022/03/11 10:22:38;;;;;;;;;24.00;15.50;;;;;;;;5019310;28;51139;-45
2022/03/11 10:25:28;;;;;;;;;20.00;14.00;;;;;;;;5018987;28;51176;-46
2022/03/11 10:28:14;;;;;;;;;22.50;15.75;;;;;;;;5028517;28;51236;-51
2022/03/11 10:31:08;;;;;;;;;20.75;16.75;;;;;;;;5018764;28;51126;-46
2022/03/11 10:34:10;;;;;;;;;20.25;15.00;;;;;;;;5017622;28;51175;-49
2022/03/11 10:37:07;;;;;;;;;24.00;18.50;;;;;;;;5013667;28;51245;-53
2022/03/11 10:39:52;;;;;;;;;20.75;13.50;;;;;;;;5008011;28;51559;-50
2022/03/11 10:42:36;;;;;;;;;20.25;15.00;;;;;;;;5011641;28;51074;-50
2022/03/11 10:45:21;;;;;;;;;17.50;14.25;;;;;;;;5007346;28;51219;-51
2022/03/11 10:48:05;;;;;;;;;14.75;14.25;;;;;;;;5019310;28;51543;-46
2022/03/11 10:50:50;;;;;;;;;14.75;12.00;;;;;;;;5019766;28;51505;-50
2022/03/11 10:53:37;;;;;;;;;19.25;16.25;;;;;;;;5019137;28;51142;-47
2022/03/11 10:56:26;;;;;;;;;31.00;23.75;;;;;;;;5019852;28;51296;-50
2022/03/11 10:59:21;;;;;;;;;27.25;16.50;;;;;;;;5019237;28;51134;-49
2022/03/11 11:02:06;;;;;;;;;20.75;17.75;;;;;;;;5019234;28;51068;-47
2022/03/11 11:04:50;;;;;;;;;21.00;18.25;;;;;;;;5018829;28;52158;-47
2022/03/11 11:07:34;;;;;;;;;26.75;17.75;;;;;;;;5017138;28;51035;-47
2022/03/11 11:10:20;;;;;;;;;20.25;17.25;;;;;;;;5019025;28;51218;-51
2022/03/11 11:13:06;;;;;;;;;18.75;14.50;;;;;;;;5019131;28;51121;-47
2022/03/11 11:15:52;;;;;;;;;21.50;14.50;;;;;;;;5019062;28;51146;-52
2022/03/11 11:18:39;;;;;;;;;17.25;13.00;;;;;;;;5019240;28;51576;-49
2022/03/11 11:21:24;;;;;;;;;27.00;16.25;;;;;;;;5017732;28;51431;-46
2022/03/11 11:24:14;;;;;;;;;24.25;18.00;;;;;;;;5018839;28;51486;-46
2022/03/11 11:26:58;;;;;;;;;20.25;17.00;;;;;;;;5018812;28;51055;-48
2022/03/11 11:29:42;;;;;;;;;27.00;17.00;;;;;;;;5019763;28;51055;-47
2022/03/11 11:32:27;;;;;;;;;19.25;14.25;;;;;;;;5018400;28;51110;-50
2022/03/11 11:35:28;;;;;;;;;26.50;20.00;;;;;;;;5019551;28;51146;-47
2022/03/11 11:38:27;;;;;;;;;24.75;19.00;;;;;;;;5018420;28;51422;-45
2022/03/11 11:41:25;;;;;;;;;15.25;8.75;;;;;;;;5019742;28;51497;-45
2022/03/11 11:44:09;;;;;;;;;28.00;19.50;;;;;;;;5019243;28;51264;-47
2022/03/11 11:47:15;;;;;;;;;20.25;17.25;;;;;;;;5019959;28;51239;-49
2022/03/11 11:50:13;;;;;;;;;21.25;17.50;;;;;;;;5016745;28;51451;-49
2022/03/11 11:52:57;;;;;;;;;22.00;15.75;;;;;;;;5020198;28;51339;-53
2022/03/11 11:55:42;;;;;;;;;21.50;15.25;;;;;;;;5019143;28;51079;-46
2022/03/11 11:58:30;;;;;;;;;16.25;14.75;;;;;;;;5011551;28;51109;-48
2022/03/11 12:01:34;;;;;;;;;23.00;16.00;;;;;;;;5006768;28;51117;-51
2022/03/11 12:04:24;;;;;;;;;21.00;16.75;;;;;;;;5012559;28;51417;-48
2022/03/11 12:07:17;;;;;;;;;12.00;12.00;;;;;;;;5013679;28;51141;-48
2022/03/11 12:10:21;;;;;;;;;15.75;11.25;;;;;;;;5009731;28;51110;-48
2022/03/11 12:13:06;;;;;;;;;22.00;15.50;;;;;;;;5014349;28;52542;-46
2022/03/11 12:15:50;;;;;;;;;23.00;16.50;;;;;;;;5012291;28;51427;-48
2022/03/11 12:18:36;;;;;;;;;15.00;12.75;;;;;;;;5016783;28;51238;-48
2022/03/11 12:21:38;;;;;;;;;28.75;21.75;;;;;;;;5016397;28;51189;-47
2022/03/11 12:24:35;;;;;;;;;21.25;17.00;;;;;;;;5015885;28;51125;-48
2022/03/11 12:27:39;;;;;;;;;24.25;17.00;;;;;;;;5017729;28;51020;-47
2022/03/11 12:30:23;;;;;;;;;17.25;13.25;;;;;;;;5006220;28;51549;-49
2022/03/11 12:33:10;;;;;;;;;21.75;13.50;;;;;;;;5017073;28;51497;-48
2022/03/11 12:35:56;;;;;;;;;24.75;21.00;;;;;;;;5017555;28;51382;-51
2022/03/11 12:38:41;;;;;;;;;17.75;13.50;;;;;;;;5018770;28;51111;-50
2022/03/11 12:41:31;;;;;;;;;21.75;17.75;;;;;;;;5017564;28;51086;-49
2022/03/11 12:44:16;;;;;;;;;24.75;19.50;;;;;;;;5017035;28;51110;-49
2022/03/11 12:47:00;;;;;;;;;22.50;16.75;;;;;;;;5015321;28;51126;-46
2022/03/11 12:49:45;;;;;;;;;18.75;14.75;;;;;;;;5008595;28;51208;-46
2022/03/11 12:52:35;;;;;;;;;19.75;16.25;;;;;;;;5017187;28;51238;-45
2022/03/11 12:55:21;;;;;;;;;14.50;11.75;;;;;;;;5003668;28;51224;-44
2022/03/11 12:58:09;;;;;;;;;19.00;14.00;;;;;;;;5005201;28;51218;-45
2022/03/11 13:00:55;;;;;;;;;18.75;11.25;;;;;;;;5007016;28;51155;-45
2022/03/11 13:03:41;;;;;;;;;15.75;10.25;;;;;;;;5004874;28;51179;-44
2022/03/11 13:06:25;;;;;;;;;14.25;10.00;;;;;;;;5012731;28;51599;-48
2022/03/11 13:09:09;;;;;;;;;16.25;12.50;;;;;;;;5016530;28;51253;-49
2022/03/11 13:11:54;;;;;;;;;24.25;13.25;;;;;;;;5015513;28;51161;-46
2022/03/11 13:14:38;;;;;;;;;18.75;10.75;;;;;;;;5015106;28;51234;-48
2022/03/11 13:17:23;;;;;;;;;19.25;14.50;;;;;;;;5003693;28;51135;-47
2022/03/11 13:20:08;;;;;;;;;14.75;9.50;;;;;;;;5005804;28;51813;-48
2022/03/11 13:22:52;;;;;;;;;14.75;11.25;;;;;;;;5007404;28;51409;-47
2022/03/11 13:25:36;;;;;;;;;15.50;11.50;;;;;;;;5010814;28;51077;-48
2022/03/11 13:28:22;;;;;;;;;16.75;12.00;;;;;;;;5014988;28;51087;-51
2022/03/11 13:31:13;;;;;;;;;13.25;10.00;;;;;;;;5016545;28;51452;-52
2022/03/11 13:33:57;;;;;;;;;22.25;12.25;;;;;;;;5017155;28;51313;-47
2022/03/11 13:36:42;;;;;;;;;12.00;10.75;;;;;;;;5019074;28;51139;-50
2022/03/11 13:39:27;;;;;;;;;16.00;11.25;;;;;;;;5020294;28;51039;-54
2022/03/11 13:42:11;;;;;;;;;16.50;16.00;;;;;;;;5021750;28;51160;-49
2022/03/11 13:45:03;;;;;;;;;21.00;13.50;;;;;;;;5021402;28;51170;-51
2022/03/11 13:48:00;;;;;;;;;20.75;15.75;;;;;;;;5020719;28;51520;-46
2022/03/11 13:50:44;;;;;;;;;23.50;18.00;;;;;;;;5016513;28;51305;-47
2022/03/11 13:53:29;;;;;;;;;17.00;16.75;;;;;;;;5010111;28;51189;-46
2022/03/11 13:56:15;;;;;;;;;19.75;19.75;;;;;;;;5012651;28;51549;-48
2022/03/11 13:59:05;;;;;;;;;27.75;21.25;;;;;;;;5020043;28;51375;-47
2022/03/11 14:01:49;;;;;;;;;22.50;17.25;;;;;;;;5019672;28;51149;-46
2022/03/11 14:04:33;;;;;;;;;21.25;17.75;;;;;;;;5020071;28;51223;-50
2022/03/11 14:07:19;;;;;;;;;24.25;20.50;;;;;;;;5020242;28;51242;-46
2022/03/11 14:10:05;;;;;;;;;36.00;28.75;;;;;;;;5028552;28;51173;-47
2022/03/11 14:13:10;;;;;;;;;24.50;22.50;;;;;;;;5018258;28;51226;-49
2022/03/11 14:15:54;;;;;;;;;38.25;30.50;;;;;;;;5018937;28;51236;-50
2022/03/11 14:18:38;;;;;;;;;24.75;16.75;;;;;;;;5017945;28;51214;-49
2022/03/11 14:21:22;;;;;;;;;50.00;40.25;;;;;;;;5019271;28;51335;-50
2022/03/11 14:24:07;;;;;;;;;18.50;16.00;;;;;;;;5019318;28;51202;-49
2022/03/11 14:26:51;;;;;;;;;17.75;10.75;;;;;;;;5019818;28;51504;-50
2022/03/11 14:29:36;;;;;;;;;18.25;14.75;;;;;;;;5017343;28;51257;-48
2022/03/11 14:32:20;;;;;;;;;12.50;9.25;;;;;;;;5013618;28;51171;-50
2022/03/11 14:35:05;;;;;;;;;18.50;11.50;;;;;;;;5018489;28;50991;-44
2022/03/11 14:37:49;;;;;;;;;6.75;5.00;;;;;;;;5015411;28;51456;-47
2022/03/11 14:40:34;;;;;;;;;11.75;10.75;;;;;;;;5018939;28;51192;-48
2022/03/11 14:43:18;;;;;;;;;18.75;12.75;;;;;;;;5015728;28;51169;-52
2022/03/11 14:46:03;;;;;;;;;19.00;14.25;;;;;;;;5019442;28;51410;-48
2022/03/11 14:48:47;;;;;;;;;11.00;10.25;;;;;;;;5019381;28;52144;-48
2022/03/11 14:51:31;;;;;;;;;16.75;11.75;;;;;;;;5018904;28;51126;-45
2022/03/11 14:54:16;;;;;;;;;12.00;10.00;;;;;;;;5019559;28;51475;-49
2022/03/11 14:57:00;;;;;;;;;16.00;13.25;;;;;;;;5018936;28;51157;-49
2022/03/11 14:59:44;;;;;;;;;18.25;13.50;;;;;;;;5016491;28;51237;-47
2022/03/11 15:02:29;;;;;;;;;16.75;13.00;;;;;;;;5015760;28;52380;-46
2022/03/11 15:05:14;;;;;;;;;18.25;13.00;;;;;;;;5019316;28;51172;-48
2022/03/11 15:07:58;;;;;;;;;20.00;15.50;;;;;;;;5018136;28;51008;-50
2022/03/11 15:10:43;;;;;;;;;16.25;13.75;;;;;;;;5017982;28;51170;-48
2022/03/11 15:13:27;;;;;;;;;15.50;12.50;;;;;;;;5017278;28;51146;-46
2022/03/11 15:16:12;;;;;;;;;13.50;6.50;;;;;;;;5011085;28;52157;-47
2022/03/11 15:18:57;;;;;;;;;22.00;18.25;;;;;;;;5015509;28;51163;-51
2022/03/11 15:21:43;;;;;;;;;6.50;0.25;;;;;;;;5013531;28;51280;-47
2022/03/11 15:24:27;;;;;;;;;16.00;11.75;;;;;;;;5016259;28;51189;-47
2022/03/11 15:27:12;;;;;;;;;16.25;15.00;;;;;;;;5019250;28;51648;-48
2022/03/11 15:29:56;;;;;;;;;13.25;9.50;;;;;;;;5015615;28;51176;-49
2022/03/11 15:32:40;;;;;;;;;31.25;26.75;;;;;;;;5016458;28;51168;-51
2022/03/11 15:35:27;;;;;;;;;17.25;14.00;;;;;;;;5014509;28;52369;-48
2022/03/11 15:38:11;;;;;;;;;23.50;18.75;;;;;;;;5015974;28;51148;-48
2022/03/11 15:40:55;;;;;;;;;43.75;33.75;;;;;;;;5014610;28;51979;-49
2022/03/11 15:43:40;;;;;;;;;15.00;14.00;;;;;;;;5015579;28;51262;-47
2022/03/11 15:46:24;;;;;;;;;18.75;13.75;;;;;;;;5017310;28;51142;-50
2022/03/11 15:49:09;;;;;;;;;18.50;18.00;;;;;;;;5015806;28;51168;-47
2022/03/11 15:51:53;;;;;;;;;25.75;22.50;;;;;;;;5016227;28;51177;-48
2022/03/11 15:54:38;;;;;;;;;16.25;13.50;;;;;;;;5016033;28;51098;-46
2022/03/11 15:57:22;;;;;;;;;20.75;14.25;;;;;;;;5016433;28;51170;-46
2022/03/11 16:00:07;;;;;;;;;33.00;28.25;;;;;;;;5015182;28;51401;-46
2022/03/11 16:02:53;;;;;;;;;22.00;18.25;;;;;;;;5014719;28;51490;-46
2022/03/11 16:05:38;;;;;;;;;44.50;33.75;;;;;;;;5015599;28;51595;-46